Карточка аэропорта URSS

Внимание!
Информация на этой странице в стадии наполнения.
Если вы не увидели какой-то информации, или заметили неточность - пожалуйста сообщите нам!
Спасибо!
Команда RU-STAFF
Название аэропортаСочи
Название аэропорта (англ.)Sochi
Превышение89 ft. (27.1 m.)
Координаты43°26.634', 39°56.55'
Высота перехода13000 ft
Эшелон переходаQNH>=977hPa: FL150; QNH<977hPa: FL160
Коды ответчика1060-1077
Зона ОрВДРостов-на-Дону РПИ (URRV)
Данные METARURSS 150900Z 17002MPS 9999 OVC130 30/16 Q1005 R02/010070 R06/010070 NOSIG RMK R06/19003MPS QFE752
Проноз погоды (TAF)URSS 150755Z 1509/1609 28007G14MPS 9999 SCT030CB SCT100 TEMPO 1509/1517 VRB08G14MPS -TSRA BECMG 1517/1518 05003G08MPS BKN040CB BKN100 TEMPO 1518/1606 VRB07G12MPS 2100 -TSRA SCT007 BKN030CB OVC100 BECMG 1606/1607 18005G10MPS
NOTAMshow/hide NOTAM
AWOS   TABLE

Информация о ВПП

ВПП Длина ВПП (м.) Покрытие Курс ВПП Частота ILS
062890Цементобетон58111.1
022500Цементобетон22110.5
242890Цементобетон238 
202500Цементобетон202 

Диспетчерские позиции

Позывной Наименование органа УВД Частота
URSSFM1119.000
URSS_APPСочи-Подход124.600
URSS_DELСочи-Деливери132.700
URSS_GNDСочи-Руление119.000
URSS_R_APPСочи-Круг119.700
URSS_TWRСочи-Старт121.200



Спутниковое изображение